sensor_id;sensor_type;location;lat;lon;timestamp;pressure;altitude;pressure_sealevel;temperature;humidity
53522;BME280;39398;48.382;9.802;2024-03-23T00:56:26;93232.00;;;9.96;55.63
53522;BME280;39398;48.382;9.802;2024-03-23T01:01:28;93221.50;;;10.09;59.77
53522;BME280;39398;48.382;9.802;2024-03-23T01:06:29;93215.25;;;9.92;56.38
53522;BME280;39398;48.382;9.802;2024-03-23T01:11:31;93201.84;;;9.95;59.58
53522;BME280;39398;48.382;9.802;2024-03-23T01:16:32;93199.69;;;9.92;57.21
53522;BME280;39398;48.382;9.802;2024-03-23T01:21:34;93193.63;;;9.98;59.79
53522;BME280;39398;48.382;9.802;2024-03-23T01:26:36;93188.44;;;9.98;59.12
53522;BME280;39398;48.382;9.802;2024-03-23T01:31:38;93184.84;;;9.99;57.92
53522;BME280;39398;48.382;9.802;2024-03-23T01:36:40;93174.88;;;9.96;58.51
53522;BME280;39398;48.382;9.802;2024-03-23T01:41:41;93174.47;;;9.99;59.17
53522;BME280;39398;48.382;9.802;2024-03-23T01:46:44;93173.66;;;9.98;59.05
53522;BME280;39398;48.382;9.802;2024-03-23T01:51:45;93179.34;;;9.89;58.79
53522;BME280;39398;48.382;9.802;2024-03-23T01:56:47;93176.19;;;9.87;58.92
53522;BME280;39398;48.382;9.802;2024-03-23T02:01:48;93159.94;;;9.91;60.87
53522;BME280;39398;48.382;9.802;2024-03-23T02:06:50;93159.81;;;9.86;59.56
53522;BME280;39398;48.382;9.802;2024-03-23T02:11:52;93143.22;;;9.87;59.44
53522;BME280;39398;48.382;9.802;2024-03-23T02:16:54;93134.66;;;9.87;59.89
53522;BME280;39398;48.382;9.802;2024-03-23T02:21:55;93122.88;;;9.84;59.79
53522;BME280;39398;48.382;9.802;2024-03-23T02:26:57;93121.78;;;9.92;59.79
53522;BME280;39398;48.382;9.802;2024-03-23T02:31:58;93121.09;;;9.85;60.59
53522;BME280;39398;48.382;9.802;2024-03-23T02:37:00;93109.03;;;9.90;61.14
53522;BME280;39398;48.382;9.802;2024-03-23T02:42:02;93101.44;;;9.89;61.00
53522;BME280;39398;48.382;9.802;2024-03-23T02:47:04;93091.63;;;9.91;60.85
53522;BME280;39398;48.382;9.802;2024-03-23T02:52:06;93065.25;;;9.94;60.29
53522;BME280;39398;48.382;9.802;2024-03-23T02:57:07;93073.47;;;9.91;61.18
53522;BME280;39398;48.382;9.802;2024-03-23T03:02:09;93066.94;;;9.88;60.98
53522;BME280;39398;48.382;9.802;2024-03-23T03:07:10;93056.75;;;9.87;61.46
53522;BME280;39398;48.382;9.802;2024-03-23T03:12:12;93057.31;;;9.89;61.08
53522;BME280;39398;48.382;9.802;2024-03-23T03:17:14;93062.59;;;9.82;61.21
53522;BME280;39398;48.382;9.802;2024-03-23T03:22:16;93062.00;;;9.80;62.22
53522;BME280;39398;48.382;9.802;2024-03-23T03:27:17;93045.00;;;9.84;61.76
53522;BME280;39398;48.382;9.802;2024-03-23T03:32:19;93052.25;;;9.94;62.09
53522;BME280;39398;48.382;9.802;2024-03-23T03:37:21;93036.91;;;9.92;61.89
53522;BME280;39398;48.382;9.802;2024-03-23T03:42:23;93039.72;;;9.91;61.99
53522;BME280;39398;48.382;9.802;2024-03-23T03:47:24;93023.91;;;9.92;61.51
53522;BME280;39398;48.382;9.802;2024-03-23T03:52:26;93010.56;;;9.89;62.38
53522;BME280;39398;48.382;9.802;2024-03-23T03:57:27;92999.06;;;9.85;63.59
53522;BME280;39398;48.382;9.802;2024-03-23T04:02:29;92996.19;;;9.74;62.68
53522;BME280;39398;48.382;9.802;2024-03-23T04:07:31;92996.41;;;9.73;63.16
53522;BME280;39398;48.382;9.802;2024-03-23T04:12:33;92981.50;;;9.68;63.36
53522;BME280;39398;48.382;9.802;2024-03-23T04:17:35;92994.09;;;9.65;63.28
53522;BME280;39398;48.382;9.802;2024-03-23T04:22:40;92985.97;;;9.61;63.77
53522;BME280;39398;48.382;9.802;2024-03-23T04:27:41;92982.00;;;9.59;64.86
53522;BME280;39398;48.382;9.802;2024-03-23T04:32:43;92964.03;;;9.57;64.04
53522;BME280;39398;48.382;9.802;2024-03-23T04:37:44;92958.84;;;9.57;63.90
53522;BME280;39398;48.382;9.802;2024-03-23T04:42:46;92947.34;;;9.53;64.33
53522;BME280;39398;48.382;9.802;2024-03-23T04:47:48;92932.78;;;9.52;64.71
53522;BME280;39398;48.382;9.802;2024-03-23T04:52:50;92923.06;;;9.48;64.52
53522;BME280;39398;48.382;9.802;2024-03-23T04:57:51;92905.91;;;9.47;64.99
53522;BME280;39398;48.382;9.802;2024-03-23T05:02:53;92897.88;;;9.36;65.94
53522;BME280;39398;48.382;9.802;2024-03-23T05:07:55;92895.63;;;9.22;66.54
53522;BME280;39398;48.382;9.802;2024-03-23T05:12:56;92886.13;;;9.16;66.60
53522;BME280;39398;48.382;9.802;2024-03-23T05:17:58;92884.59;;;9.26;67.33
53522;BME280;39398;48.382;9.802;2024-03-23T05:22:59;92867.78;;;9.17;66.67
53522;BME280;39398;48.382;9.802;2024-03-23T05:28:01;92861.91;;;9.22;66.46
53522;BME280;39398;48.382;9.802;2024-03-23T05:33:03;92864.22;;;9.30;66.50
53522;BME280;39398;48.382;9.802;2024-03-23T05:38:04;92867.81;;;9.29;66.60
53522;BME280;39398;48.382;9.802;2024-03-23T05:43:06;92862.47;;;9.24;67.05
53522;BME280;39398;48.382;9.802;2024-03-23T05:48:09;92869.84;;;9.27;70.15
53522;BME280;39398;48.382;9.802;2024-03-23T05:53:11;92860.22;;;9.16;69.81
53522;BME280;39398;48.382;9.802;2024-03-23T05:58:14;92848.50;;;9.25;71.19
53522;BME280;39398;48.382;9.802;2024-03-23T06:03:16;92831.50;;;9.29;70.86
53522;BME280;39398;48.382;9.802;2024-03-23T06:08:18;92816.66;;;9.36;71.19
53522;BME280;39398;48.382;9.802;2024-03-23T06:13:20;92836.66;;;9.47;71.83
53522;BME280;39398;48.382;9.802;2024-03-23T06:18:25;92853.38;;;9.51;71.79
53522;BME280;39398;48.382;9.802;2024-03-23T06:23:26;92965.75;;;8.90;75.29
53522;BME280;39398;48.382;9.802;2024-03-23T06:28:28;92975.88;;;8.17;78.80
53522;BME280;39398;48.382;9.802;2024-03-23T06:33:30;92976.63;;;7.93;81.58
53522;BME280;39398;48.382;9.802;2024-03-23T06:38:31;92942.28;;;7.72;82.74
53522;BME280;39398;48.382;9.802;2024-03-23T06:43:33;92988.50;;;7.62;82.92
53522;BME280;39398;48.382;9.802;2024-03-23T06:48:34;92982.16;;;7.58;83.32
53522;BME280;39398;48.382;9.802;2024-03-23T06:53:36;92978.78;;;7.58;82.76
53522;BME280;39398;48.382;9.802;2024-03-23T06:58:38;92987.56;;;7.50;82.47
53522;BME280;39398;48.382;9.802;2024-03-23T07:03:39;92972.22;;;7.55;81.33
53522;BME280;39398;48.382;9.802;2024-03-23T07:08:41;92983.75;;;7.59;81.07
53522;BME280;39398;48.382;9.802;2024-03-23T07:13:42;92985.59;;;7.52;82.83
53522;BME280;39398;48.382;9.802;2024-03-23T07:18:44;93017.81;;;7.43;82.59
53522;BME280;39398;48.382;9.802;2024-03-23T07:23:46;93019.03;;;7.41;81.58
53522;BME280;39398;48.382;9.802;2024-03-23T07:28:47;93013.88;;;7.34;79.99
53522;BME280;39398;48.382;9.802;2024-03-23T07:33:49;93038.78;;;7.09;80.71
53522;BME280;39398;48.382;9.802;2024-03-23T07:38:51;93063.63;;;7.10;79.55
53522;BME280;39398;48.382;9.802;2024-03-23T07:43:53;93064.81;;;7.07;78.31
53522;BME280;39398;48.382;9.802;2024-03-23T07:48:55;93073.38;;;7.08;78.00
53522;BME280;39398;48.382;9.802;2024-03-23T07:53:57;93084.13;;;6.91;78.46
53522;BME280;39398;48.382;9.802;2024-03-23T07:58:58;93086.69;;;6.91;79.19
53522;BME280;39398;48.382;9.802;2024-03-23T08:04:00;93089.06;;;7.26;78.93
53522;BME280;39398;48.382;9.802;2024-03-23T08:09:02;93102.56;;;7.41;76.97
53522;BME280;39398;48.382;9.802;2024-03-23T08:14:03;93105.16;;;7.21;76.92
53522;BME280;39398;48.382;9.802;2024-03-23T08:19:06;93106.56;;;7.24;76.82
53522;BME280;39398;48.382;9.802;2024-03-23T08:24:09;93124.47;;;7.19;76.08
53522;BME280;39398;48.382;9.802;2024-03-23T08:29:10;93137.56;;;7.57;74.70
53522;BME280;39398;48.382;9.802;2024-03-23T08:34:12;93158.66;;;7.47;73.98
53522;BME280;39398;48.382;9.802;2024-03-23T08:39:13;93154.63;;;7.84;74.99
53522;BME280;39398;48.382;9.802;2024-03-23T08:44:15;93159.22;;;7.76;72.02
53522;BME280;39398;48.382;9.802;2024-03-23T08:49:17;93150.34;;;8.16;72.76
53522;BME280;39398;48.382;9.802;2024-03-23T08:54:18;93200.84;;;7.28;74.70
53522;BME280;39398;48.382;9.802;2024-03-23T08:59:22;93217.91;;;7.03;76.97
53522;BME280;39398;48.382;9.802;2024-03-23T09:04:24;93254.03;;;6.89;77.29
53522;BME280;39398;48.382;9.802;2024-03-23T09:09:26;93255.19;;;6.67;74.86
53522;BME280;39398;48.382;9.802;2024-03-23T09:14:27;93268.34;;;6.79;72.29
53522;BME280;39398;48.382;9.802;2024-03-23T09:19:30;93274.38;;;7.12;70.29
53522;BME280;39398;48.382;9.802;2024-03-23T09:24:31;93280.44;;;7.52;65.13
53522;BME280;39398;48.382;9.802;2024-03-23T09:29:33;93274.06;;;7.75;63.78
53522;BME280;39398;48.382;9.802;2024-03-23T09:34:35;93287.16;;;7.40;62.54
53522;BME280;39398;48.382;9.802;2024-03-23T09:39:36;93269.22;;;7.12;63.15
53522;BME280;39398;48.382;9.802;2024-03-23T09:44:38;93279.53;;;6.99;61.58
53522;BME280;39398;48.382;9.802;2024-03-23T09:49:39;93273.78;;;7.04;61.44
53522;BME280;39398;48.382;9.802;2024-03-23T09:54:42;93286.72;;;7.04;60.37
53522;BME280;39398;48.382;9.802;2024-03-23T09:59:43;93269.63;;;7.22;61.37
53522;BME280;39398;48.382;9.802;2024-03-23T10:04:45;93260.13;;;8.02;62.44
53522;BME280;39398;48.382;9.802;2024-03-23T10:09:46;93227.81;;;8.11;59.31
53522;BME280;39398;48.382;9.802;2024-03-23T10:14:48;93230.78;;;8.21;58.65
53522;BME280;39398;48.382;9.802;2024-03-23T10:19:51;93260.91;;;7.56;57.84
53522;BME280;39398;48.382;9.802;2024-03-23T10:25:07;93264.47;;;7.22;57.94
53522;BME280;39398;48.382;9.802;2024-03-23T10:30:11;93247.63;;;6.72;58.70
53522;BME280;39398;48.382;9.802;2024-03-23T10:35:14;93268.06;;;7.28;60.29
53522;BME280;39398;48.382;9.802;2024-03-23T10:40:17;93281.28;;;6.85;57.73
53522;BME280;39398;48.382;9.802;2024-03-23T10:45:18;93310.69;;;7.65;61.08
53522;BME280;39398;48.382;9.802;2024-03-23T10:50:20;93315.53;;;7.00;57.57
53522;BME280;39398;48.382;9.802;2024-03-23T10:55:23;93309.50;;;6.87;59.49
53522;BME280;39398;48.382;9.802;2024-03-23T11:00:25;93294.72;;;7.35;57.07
53522;BME280;39398;48.382;9.802;2024-03-23T11:05:29;93301.31;;;7.90;58.49
53522;BME280;39398;48.382;9.802;2024-03-23T11:10:31;93319.47;;;8.03;56.36
53522;BME280;39398;48.382;9.802;2024-03-23T11:15:34;93305.47;;;8.31;55.21
53522;BME280;39398;48.382;9.802;2024-03-23T11:20:36;93322.22;;;7.95;53.68
53522;BME280;39398;48.382;9.802;2024-03-23T11:25:37;93303.13;;;7.63;53.96
53522;BME280;39398;48.382;9.802;2024-03-23T11:30:39;93309.50;;;7.94;53.14
53522;BME280;39398;48.382;9.802;2024-03-23T11:35:41;93307.47;;;8.42;54.65
53522;BME280;39398;48.382;9.802;2024-03-23T11:40:44;93307.56;;;8.80;53.34
53522;BME280;39398;48.382;9.802;2024-03-23T11:45:51;93302.84;;;8.64;48.80
53522;BME280;39398;48.382;9.802;2024-03-23T11:50:56;93340.53;;;7.74;58.17
53522;BME280;39398;48.382;9.802;2024-03-23T11:55:59;93376.97;;;5.87;63.40
53522;BME280;39398;48.382;9.802;2024-03-23T12:01:02;93347.56;;;5.39;60.65
53522;BME280;39398;48.382;9.802;2024-03-23T12:06:05;93368.63;;;5.64;58.47
53522;BME280;39398;48.382;9.802;2024-03-23T12:11:15;93362.13;;;5.68;57.99
53522;BME280;39398;48.382;9.802;2024-03-23T12:16:19;93380.91;;;5.83;57.23
53522;BME280;39398;48.382;9.802;2024-03-23T12:21:21;93396.78;;;5.44;60.69
53522;BME280;39398;48.382;9.802;2024-03-23T12:26:23;93393.22;;;5.09;65.26
53522;BME280;39398;48.382;9.802;2024-03-23T12:31:24;93402.94;;;4.92;67.55
53522;BME280;39398;48.382;9.802;2024-03-23T12:36:26;93414.94;;;5.00;70.12
53522;BME280;39398;48.382;9.802;2024-03-23T12:41:27;93401.44;;;4.53;69.34
53522;BME280;39398;48.382;9.802;2024-03-23T12:46:29;93390.31;;;4.97;68.40
53522;BME280;39398;48.382;9.802;2024-03-23T12:51:31;93386.13;;;5.47;71.17
53522;BME280;39398;48.382;9.802;2024-03-23T12:56:32;93368.25;;;5.45;67.44
53522;BME280;39398;48.382;9.802;2024-03-23T13:01:34;93377.06;;;5.15;69.24
53522;BME280;39398;48.382;9.802;2024-03-23T13:06:36;93364.53;;;5.12;70.23
53522;BME280;39398;48.382;9.802;2024-03-23T13:11:38;93393.34;;;5.01;70.26
53522;BME280;39398;48.382;9.802;2024-03-23T13:16:39;93368.75;;;4.98;70.81
53522;BME280;39398;48.382;9.802;2024-03-23T13:21:41;93358.91;;;5.23;70.83
53522;BME280;39398;48.382;9.802;2024-03-23T13:26:42;93363.44;;;5.21;68.26
53522;BME280;39398;48.382;9.802;2024-03-23T13:31:44;93349.59;;;5.65;67.76
53522;BME280;39398;48.382;9.802;2024-03-23T13:36:47;93357.25;;;5.58;67.22
53522;BME280;39398;48.382;9.802;2024-03-23T13:41:48;93339.78;;;5.32;69.01
53522;BME280;39398;48.382;9.802;2024-03-23T13:46:50;93342.44;;;5.88;68.10
53522;BME280;39398;48.382;9.802;2024-03-23T13:51:52;93316.38;;;5.98;65.10
53522;BME280;39398;48.382;9.802;2024-03-23T13:56:55;93314.91;;;5.46;65.32
53522;BME280;39398;48.382;9.802;2024-03-23T14:01:57;93314.22;;;5.80;63.70
53522;BME280;39398;48.382;9.802;2024-03-23T14:06:59;93295.31;;;5.94;59.41
53522;BME280;39398;48.382;9.802;2024-03-23T14:12:00;93304.50;;;6.03;59.29
53522;BME280;39398;48.382;9.802;2024-03-23T14:17:02;93310.34;;;5.90;60.48
53522;BME280;39398;48.382;9.802;2024-03-23T14:22:04;93310.56;;;6.23;58.47
53522;BME280;39398;48.382;9.802;2024-03-23T14:27:05;93298.56;;;6.09;59.71
53522;BME280;39398;48.382;9.802;2024-03-23T14:32:07;93291.97;;;6.00;60.19
53522;BME280;39398;48.382;9.802;2024-03-23T14:37:09;93281.66;;;6.35;59.96
53522;BME280;39398;48.382;9.802;2024-03-23T14:42:10;93278.31;;;6.06;59.46
53522;BME280;39398;48.382;9.802;2024-03-23T14:47:12;93266.56;;;6.32;59.11
53522;BME280;39398;48.382;9.802;2024-03-23T14:52:13;93263.97;;;6.79;56.69
53522;BME280;39398;48.382;9.802;2024-03-23T14:57:15;93275.06;;;6.73;57.00
53522;BME280;39398;48.382;9.802;2024-03-23T15:02:19;93271.06;;;6.71;57.36
53522;BME280;39398;48.382;9.802;2024-03-23T15:07:21;93263.34;;;6.29;58.47
53522;BME280;39398;48.382;9.802;2024-03-23T15:12:22;93280.50;;;6.44;59.78
53522;BME280;39398;48.382;9.802;2024-03-23T15:17:24;93278.16;;;6.49;59.94
53522;BME280;39398;48.382;9.802;2024-03-23T15:22:25;93291.53;;;6.72;59.46
53522;BME280;39398;48.382;9.802;2024-03-23T15:27:27;93292.09;;;6.61;60.17
53522;BME280;39398;48.382;9.802;2024-03-23T15:32:29;93304.41;;;5.69;63.85
53522;BME280;39398;48.382;9.802;2024-03-23T15:37:31;93303.81;;;5.67;65.97
53522;BME280;39398;48.382;9.802;2024-03-23T15:42:34;93310.00;;;5.08;66.13
53522;BME280;39398;48.382;9.802;2024-03-23T15:47:36;93331.13;;;5.04;66.89
53522;BME280;39398;48.382;9.802;2024-03-23T15:52:37;93370.97;;;4.13;74.26
53522;BME280;39398;48.382;9.802;2024-03-23T15:57:40;93335.88;;;3.22;78.33
53522;BME280;39398;48.382;9.802;2024-03-23T16:02:42;93353.81;;;3.91;78.47
53522;BME280;39398;48.382;9.802;2024-03-23T16:07:43;93336.00;;;3.52;78.66
53522;BME280;39398;48.382;9.802;2024-03-23T16:12:45;93329.88;;;3.90;80.06
53522;BME280;39398;48.382;9.802;2024-03-23T16:17:47;93333.53;;;4.10;80.50
53522;BME280;39398;48.382;9.802;2024-03-23T16:22:48;93325.91;;;4.17;77.43
53522;BME280;39398;48.382;9.802;2024-03-23T16:27:50;93327.34;;;4.34;78.23
53522;BME280;39398;48.382;9.802;2024-03-23T16:32:51;93322.78;;;4.21;77.49
53522;BME280;39398;48.382;9.802;2024-03-23T16:37:53;93309.50;;;4.33;76.71
53522;BME280;39398;48.382;9.802;2024-03-23T16:42:54;93304.41;;;4.54;77.08
53522;BME280;39398;48.382;9.802;2024-03-23T16:47:56;93310.63;;;4.60;76.20
53522;BME280;39398;48.382;9.802;2024-03-23T16:52:58;93312.78;;;4.27;75.61
53522;BME280;39398;48.382;9.802;2024-03-23T16:58:00;93299.75;;;4.13;75.11
53522;BME280;39398;48.382;9.802;2024-03-23T17:03:05;93295.81;;;4.47;74.80
53522;BME280;39398;48.382;9.802;2024-03-23T17:08:06;93298.31;;;4.26;75.82
53522;BME280;39398;48.382;9.802;2024-03-23T17:13:08;93301.34;;;4.29;75.46
53522;BME280;39398;48.382;9.802;2024-03-23T17:18:10;93310.31;;;4.33;74.91
53522;BME280;39398;48.382;9.802;2024-03-23T17:23:12;93298.06;;;4.50;74.29
53522;BME280;39398;48.382;9.802;2024-03-23T17:28:13;93293.06;;;4.48;74.40
53522;BME280;39398;48.382;9.802;2024-03-23T17:33:17;93296.34;;;4.57;75.63
53522;BME280;39398;48.382;9.802;2024-03-23T17:38:18;93297.25;;;4.49;75.52
53522;BME280;39398;48.382;9.802;2024-03-23T17:43:21;93304.59;;;4.08;75.77
53522;BME280;39398;48.382;9.802;2024-03-23T17:48:23;93309.72;;;3.79;75.94
53522;BME280;39398;48.382;9.802;2024-03-23T17:53:24;93314.13;;;3.70;75.51
53522;BME280;39398;48.382;9.802;2024-03-23T17:58:26;93306.66;;;3.61;75.81
53522;BME280;39398;48.382;9.802;2024-03-23T18:03:27;93310.75;;;3.70;75.09
53522;BME280;39398;48.382;9.802;2024-03-23T18:08:29;93309.94;;;3.55;74.56
53522;BME280;39398;48.382;9.802;2024-03-23T18:13:31;93315.38;;;3.74;74.57
53522;BME280;39398;48.382;9.802;2024-03-23T18:18:32;93310.59;;;3.86;73.84
53522;BME280;39398;48.382;9.802;2024-03-23T18:23:34;93302.44;;;3.68;74.17
53522;BME280;39398;48.382;9.802;2024-03-23T18:28:35;93300.63;;;3.54;73.49
53522;BME280;39398;48.382;9.802;2024-03-23T18:33:39;93298.97;;;3.61;73.09
53522;BME280;39398;48.382;9.802;2024-03-23T18:38:41;93286.16;;;3.53;74.39
53522;BME280;39398;48.382;9.802;2024-03-23T18:43:46;93294.75;;;3.22;72.29
53522;BME280;39398;48.382;9.802;2024-03-23T18:48:48;93303.41;;;3.29;72.21
53522;BME280;39398;48.382;9.802;2024-03-23T18:53:50;93312.41;;;3.48;72.35
53522;BME280;39398;48.382;9.802;2024-03-23T18:58:51;93316.56;;;3.49;72.89
53522;BME280;39398;48.382;9.802;2024-03-23T19:03:53;93322.50;;;3.49;72.94
53522;BME280;39398;48.382;9.802;2024-03-23T19:08:55;93303.69;;;3.11;74.39
53522;BME280;39398;48.382;9.802;2024-03-23T19:13:57;93312.13;;;2.97;74.74
53522;BME280;39398;48.382;9.802;2024-03-23T19:18:58;93321.50;;;3.13;73.96
53522;BME280;39398;48.382;9.802;2024-03-23T19:24:00;93316.56;;;3.26;74.10
53522;BME280;39398;48.382;9.802;2024-03-23T19:29:02;93316.78;;;2.94;72.54
53522;BME280;39398;48.382;9.802;2024-03-23T19:34:05;93306.19;;;2.97;73.18
53522;BME280;39398;48.382;9.802;2024-03-23T19:39:08;93318.22;;;3.19;74.29
53522;BME280;39398;48.382;9.802;2024-03-23T19:44:10;93321.00;;;2.87;74.20
53522;BME280;39398;48.382;9.802;2024-03-23T19:49:12;93292.50;;;3.27;73.78
53522;BME280;39398;48.382;9.802;2024-03-23T19:54:13;93295.69;;;3.29;73.26
53522;BME280;39398;48.382;9.802;2024-03-23T19:59:15;93304.69;;;3.48;73.11
53522;BME280;39398;48.382;9.802;2024-03-23T20:04:16;93307.09;;;3.49;72.07
53522;BME280;39398;48.382;9.802;2024-03-23T20:09:18;93312.63;;;3.76;74.00
53522;BME280;39398;48.382;9.802;2024-03-23T20:14:20;93324.66;;;3.61;73.69
53522;BME280;39398;48.382;9.802;2024-03-23T20:19:21;93333.88;;;3.70;75.92
53522;BME280;39398;48.382;9.802;2024-03-23T20:24:24;93326.13;;;3.78;74.00
53522;BME280;39398;48.382;9.802;2024-03-23T20:29:27;93334.81;;;3.77;74.67
53522;BME280;39398;48.382;9.802;2024-03-23T20:34:29;93316.75;;;3.85;74.01
53522;BME280;39398;48.382;9.802;2024-03-23T20:39:30;93316.09;;;3.68;73.96
53522;BME280;39398;48.382;9.802;2024-03-23T20:44:32;93317.16;;;3.74;73.29
53522;BME280;39398;48.382;9.802;2024-03-23T20:49:34;93322.72;;;3.63;74.01
53522;BME280;39398;48.382;9.802;2024-03-23T20:54:36;93314.72;;;3.58;72.98
53522;BME280;39398;48.382;9.802;2024-03-23T20:59:37;93302.38;;;3.53;73.03
53522;BME280;39398;48.382;9.802;2024-03-23T21:04:40;93312.91;;;3.43;74.47
53522;BME280;39398;48.382;9.802;2024-03-23T21:09:41;93303.91;;;3.25;72.99
53522;BME280;39398;48.382;9.802;2024-03-23T21:14:43;93306.97;;;3.20;73.43
53522;BME280;39398;48.382;9.802;2024-03-23T21:19:51;93298.56;;;3.34;74.53
53522;BME280;39398;48.382;9.802;2024-03-23T21:24:52;93303.28;;;3.23;76.15
53522;BME280;39398;48.382;9.802;2024-03-23T21:29:54;93312.75;;;3.22;75.10
53522;BME280;39398;48.382;9.802;2024-03-23T21:34:55;93310.88;;;3.16;75.06
53522;BME280;39398;48.382;9.802;2024-03-23T21:39:57;93324.47;;;3.47;76.63
53522;BME280;39398;48.382;9.802;2024-03-23T21:44:58;93318.31;;;3.34;74.73
53522;BME280;39398;48.382;9.802;2024-03-23T21:50:00;93308.13;;;3.40;75.49
53522;BME280;39398;48.382;9.802;2024-03-23T21:55:02;93300.75;;;3.37;75.12
53522;BME280;39398;48.382;9.802;2024-03-23T22:00:04;93302.94;;;3.26;75.97
53522;BME280;39398;48.382;9.802;2024-03-23T22:05:06;93297.28;;;3.30;76.75
53522;BME280;39398;48.382;9.802;2024-03-23T22:10:10;93287.41;;;3.19;76.59
53522;BME280;39398;48.382;9.802;2024-03-23T22:15:12;93278.38;;;3.23;78.00
53522;BME280;39398;48.382;9.802;2024-03-23T22:20:15;93271.00;;;3.20;77.97
53522;BME280;39398;48.382;9.802;2024-03-23T22:25:16;93263.56;;;3.10;76.81
53522;BME280;39398;48.382;9.802;2024-03-23T22:30:18;93260.31;;;3.17;78.03
53522;BME280;39398;48.382;9.802;2024-03-23T22:35:20;93250.59;;;3.04;79.65
53522;BME280;39398;48.382;9.802;2024-03-23T22:40:21;93255.50;;;3.13;78.42
53522;BME280;39398;48.382;9.802;2024-03-23T22:45:23;93247.69;;;3.07;79.95
53522;BME280;39398;48.382;9.802;2024-03-23T22:50:24;93244.78;;;3.10;79.53
53522;BME280;39398;48.382;9.802;2024-03-23T22:55:26;93237.59;;;3.05;81.35
53522;BME280;39398;48.382;9.802;2024-03-23T23:00:27;93236.31;;;3.24;80.04
53522;BME280;39398;48.382;9.802;2024-03-23T23:05:30;93227.44;;;3.12;80.33
53522;BME280;39398;48.382;9.802;2024-03-23T23:10:32;93234.00;;;3.14;81.43
53522;BME280;39398;48.382;9.802;2024-03-23T23:15:34;93225.50;;;2.91;80.08
53522;BME280;39398;48.382;9.802;2024-03-23T23:20:36;93217.19;;;3.27;83.20
53522;BME280;39398;48.382;9.802;2024-03-23T23:25:37;93211.78;;;3.22;81.39
53522;BME280;39398;48.382;9.802;2024-03-23T23:30:39;93200.28;;;3.32;81.15
53522;BME280;39398;48.382;9.802;2024-03-23T23:35:40;93197.63;;;3.26;80.38
53522;BME280;39398;48.382;9.802;2024-03-23T23:40:43;93190.09;;;3.39;79.95
53522;BME280;39398;48.382;9.802;2024-03-23T23:45:44;93185.13;;;3.37;80.04
53522;BME280;39398;48.382;9.802;2024-03-23T23:50:46;93179.09;;;3.15;80.54
53522;BME280;39398;48.382;9.802;2024-03-23T23:55:48;93171.44;;;3.07;79.70
